createdAt,value
2023-01-25T00:00:48.453Z,0.00
2023-01-25T00:01:48.493Z,0.00
2023-01-25T00:02:48.438Z,0.00
2023-01-25T00:03:48.400Z,0.00
2023-01-25T00:04:48.395Z,0.00
2023-01-25T00:05:48.412Z,0.00
2023-01-25T00:06:48.367Z,0.00
2023-01-25T00:07:48.365Z,0.00
2023-01-25T00:08:48.347Z,0.00
2023-01-25T00:09:48.366Z,0.00
2023-01-25T00:10:48.348Z,0.00
2023-01-25T00:11:48.317Z,0.00
2023-01-25T00:12:48.307Z,0.00
2023-01-25T00:13:48.294Z,0.00
2023-01-25T00:14:48.284Z,0.00
2023-01-25T00:15:48.298Z,0.00
2023-01-25T00:16:48.299Z,0.00
2023-01-25T00:17:48.256Z,0.00
2023-01-25T00:18:48.239Z,0.00
2023-01-25T00:19:48.233Z,0.00
2023-01-25T00:20:48.250Z,0.00
2023-01-25T00:21:48.233Z,0.00
2023-01-25T00:22:48.199Z,0.00
2023-01-25T00:23:48.287Z,0.00
2023-01-25T00:24:48.176Z,0.00
2023-01-25T00:25:48.210Z,0.00
2023-01-25T00:26:48.173Z,0.00
2023-01-25T00:27:48.151Z,0.00
2023-01-25T00:28:48.142Z,0.00
2023-01-25T00:29:48.125Z,0.00
2023-01-25T00:30:48.140Z,0.00
2023-01-25T00:31:48.274Z,0.00
2023-01-25T00:32:48.273Z,0.00
2023-01-25T00:33:48.084Z,0.00
2023-01-25T00:34:48.070Z,0.00
2023-01-25T00:35:48.060Z,0.00
2023-01-25T00:36:48.075Z,0.00
2023-01-25T00:37:48.038Z,0.00
2023-01-25T00:38:48.033Z,0.00
2023-01-25T00:39:48.019Z,0.00
2023-01-25T00:40:48.005Z,0.00
2023-01-25T00:41:48.053Z,0.00
2023-01-25T00:42:47.986Z,0.00
2023-01-25T00:43:47.982Z,0.00
2023-01-25T00:44:47.963Z,0.00
2023-01-25T00:45:48.013Z,0.00
2023-01-25T00:46:47.967Z,0.00
2023-01-25T00:47:47.935Z,0.00
2023-01-25T00:48:47.919Z,0.00
2023-01-25T00:49:47.914Z,0.00
2023-01-25T00:50:47.895Z,0.00
2023-01-25T00:51:47.910Z,0.00
2023-01-25T00:52:47.883Z,0.00
2023-01-25T00:53:47.880Z,0.00
2023-01-25T00:54:47.856Z,0.00
2023-01-25T00:55:47.863Z,0.00
2023-01-25T00:56:47.860Z,0.00
2023-01-25T00:57:47.848Z,0.00
2023-01-25T00:58:47.816Z,0.00
2023-01-25T00:59:47.811Z,0.00
2023-01-25T01:00:47.831Z,0.00
2023-01-25T01:01:47.793Z,0.00
2023-01-25T01:02:47.796Z,0.00
2023-01-25T01:03:47.773Z,0.00
2023-01-25T01:04:47.887Z,0.00
2023-01-25T01:05:47.739Z,0.00
2023-01-25T01:06:47.741Z,0.00
2023-01-25T01:07:47.742Z,0.00
2023-01-25T01:08:47.701Z,0.00
2023-01-25T01:09:47.696Z,0.00
2023-01-25T01:10:47.681Z,0.00
2023-01-25T01:11:47.704Z,0.00
2023-01-25T01:12:47.673Z,0.00
2023-01-25T01:13:47.672Z,0.00
2023-01-25T01:14:47.637Z,0.00
2023-01-25T01:15:47.633Z,0.00
2023-01-25T01:16:47.736Z,0.00
2023-01-25T01:17:47.635Z,0.00
2023-01-25T01:18:47.599Z,0.00
2023-01-25T01:19:47.594Z,0.00
2023-01-25T01:20:47.572Z,0.00
2023-01-25T01:21:47.590Z,0.00
2023-01-25T01:22:47.573Z,0.00
2023-01-25T01:23:47.602Z,0.00
2023-01-25T01:24:47.532Z,0.00
2023-01-25T01:25:47.527Z,0.00
2023-01-25T01:26:47.532Z,0.00
2023-01-25T01:27:47.504Z,0.00
2023-01-25T01:28:47.489Z,0.00
2023-01-25T01:29:47.505Z,0.00
2023-01-25T01:30:47.468Z,0.00
2023-01-25T01:31:47.636Z,0.00
2023-01-25T01:32:47.651Z,0.00
2023-01-25T01:33:47.432Z,0.00
2023-01-25T01:34:47.420Z,0.00
2023-01-25T01:35:47.417Z,0.00
2023-01-25T01:36:47.429Z,0.00
2023-01-25T01:37:47.400Z,0.00
2023-01-25T01:38:47.380Z,0.00
2023-01-25T01:39:47.374Z,0.00
2023-01-25T01:40:47.363Z,0.00
2023-01-25T01:41:47.376Z,0.00
2023-01-25T01:42:47.335Z,0.00
2023-01-25T01:43:47.332Z,0.00
2023-01-25T01:44:47.324Z,0.00
2023-01-25T01:45:47.362Z,0.00
2023-01-25T01:46:47.317Z,0.00
2023-01-25T01:47:47.307Z,0.00
2023-01-25T01:48:47.304Z,0.00
2023-01-25T01:49:47.267Z,0.00
2023-01-25T01:50:47.291Z,0.00
2023-01-25T01:51:47.244Z,0.00
2023-01-25T01:52:47.257Z,0.00
2023-01-25T01:53:47.235Z,0.00
2023-01-25T01:54:47.212Z,0.00
2023-01-25T01:55:47.199Z,0.00
2023-01-25T01:56:47.187Z,0.00
2023-01-25T01:57:47.199Z,0.00
2023-01-25T01:58:47.169Z,0.00
2023-01-25T01:59:47.159Z,0.00
2023-01-25T02:00:47.145Z,0.00
2023-01-25T02:01:47.172Z,0.00
2023-01-25T02:02:47.181Z,0.00
2023-01-25T02:03:47.143Z,0.00
2023-01-25T02:04:47.112Z,0.00
2023-01-25T02:05:47.096Z,0.00
2023-01-25T02:06:47.086Z,0.00
2023-01-25T02:07:47.076Z,0.00
2023-01-25T02:08:47.062Z,0.00
2023-01-25T02:09:47.067Z,0.00
2023-01-25T02:10:47.039Z,0.00
2023-01-25T02:11:47.067Z,0.00
2023-01-25T02:12:47.019Z,0.00
2023-01-25T02:13:47.006Z,0.00
2023-01-25T02:14:47.029Z,0.00
2023-01-25T02:15:46.994Z,0.00
2023-01-25T02:16:46.975Z,0.00
2023-01-25T02:17:46.993Z,0.00
2023-01-25T02:18:46.953Z,0.00
2023-01-25T02:19:46.944Z,0.00
2023-01-25T02:20:46.957Z,0.00
2023-01-25T02:21:46.923Z,0.00
2023-01-25T02:22:46.904Z,0.00
2023-01-25T02:23:47.012Z,0.00
2023-01-25T02:24:46.911Z,0.00
2023-01-25T02:25:46.879Z,0.00
2023-01-25T02:26:46.881Z,0.00
2023-01-25T02:27:46.877Z,0.00
2023-01-25T02:28:46.873Z,0.00
2023-01-25T02:29:46.863Z,0.00
2023-01-25T02:30:46.893Z,0.00
2023-01-25T02:31:46.961Z,0.00
2023-01-25T02:32:46.807Z,0.00
2023-01-25T02:33:46.816Z,0.00
2023-01-25T02:34:46.801Z,0.00
2023-01-25T02:35:46.799Z,0.00
2023-01-25T02:36:46.776Z,0.00
2023-01-25T02:37:46.754Z,0.00
2023-01-25T02:38:46.742Z,0.00
2023-01-25T02:39:46.757Z,0.00
2023-01-25T02:40:46.798Z,0.00
2023-01-25T02:41:46.767Z,0.00
2023-01-25T02:42:46.714Z,0.00
2023-01-25T02:43:46.682Z,0.00
2023-01-25T02:44:46.675Z,0.00
2023-01-25T02:45:46.746Z,0.00
2023-01-25T02:46:46.676Z,0.00
2023-01-25T02:47:46.640Z,0.00
2023-01-25T02:48:46.633Z,0.00
2023-01-25T02:49:46.665Z,0.00
2023-01-25T02:50:46.618Z,0.00
2023-01-25T02:51:46.592Z,0.00
2023-01-25T02:52:46.618Z,0.00
2023-01-25T02:53:46.576Z,0.00
2023-01-25T02:54:46.569Z,0.00
2023-01-25T02:55:46.575Z,0.00
2023-01-25T02:56:46.544Z,0.00
2023-01-25T02:57:46.535Z,0.00
2023-01-25T02:58:46.530Z,0.00
2023-01-25T02:59:46.529Z,0.00
2023-01-25T03:00:46.505Z,0.00
2023-01-25T03:01:46.577Z,0.00
2023-01-25T03:02:46.571Z,0.00
2023-01-25T03:03:46.470Z,0.00
2023-01-25T03:04:46.485Z,0.00
2023-01-25T03:05:46.472Z,0.00
2023-01-25T03:06:46.447Z,0.00
2023-01-25T03:07:46.427Z,0.00
2023-01-25T03:08:46.424Z,0.00
2023-01-25T03:09:46.423Z,0.00
2023-01-25T03:10:46.421Z,0.00
2023-01-25T03:11:46.391Z,0.00
2023-01-25T03:12:46.383Z,0.00
2023-01-25T03:13:46.360Z,0.00
2023-01-25T03:14:46.347Z,0.00
2023-01-25T03:15:46.464Z,0.00
2023-01-25T03:16:46.333Z,0.00
2023-01-25T03:17:46.319Z,0.00
2023-01-25T03:18:46.307Z,0.00
2023-01-25T03:19:46.295Z,0.00
2023-01-25T03:20:46.314Z,0.00
2023-01-25T03:21:46.296Z,0.00
2023-01-25T03:22:46.286Z,0.00
2023-01-25T03:23:46.332Z,0.00
2023-01-25T03:24:46.244Z,0.00
2023-01-25T03:25:46.260Z,0.00
2023-01-25T03:26:46.224Z,0.00
2023-01-25T03:27:46.211Z,0.00
2023-01-25T03:28:46.214Z,0.00
2023-01-25T03:29:46.194Z,0.00
2023-01-25T03:30:46.201Z,0.00
2023-01-25T03:31:46.282Z,0.00
2023-01-25T03:32:46.164Z,0.00
2023-01-25T03:33:46.143Z,0.00
2023-01-25T03:34:46.141Z,0.00
2023-01-25T03:35:46.153Z,0.00
2023-01-25T03:36:46.114Z,0.00
2023-01-25T03:37:46.128Z,0.00
2023-01-25T03:38:46.110Z,0.00
2023-01-25T03:39:46.082Z,0.00
2023-01-25T03:40:46.093Z,0.00
2023-01-25T03:41:46.077Z,0.00
2023-01-25T03:42:46.057Z,0.00
2023-01-25T03:43:46.035Z,0.00
2023-01-25T03:44:46.032Z,0.00
2023-01-25T03:45:46.040Z,0.00
2023-01-25T03:46:46.092Z,0.00
2023-01-25T03:47:46.016Z,0.00
2023-01-25T03:48:45.986Z,0.00
2023-01-25T03:49:45.971Z,0.00
2023-01-25T03:50:45.992Z,0.00
2023-01-25T03:51:45.950Z,0.00
2023-01-25T03:52:45.951Z,0.00
2023-01-25T03:53:45.950Z,0.00
2023-01-25T03:54:45.924Z,0.00
2023-01-25T03:55:45.934Z,0.00
2023-01-25T03:56:45.902Z,0.00
2023-01-25T03:57:45.897Z,0.00
2023-01-25T03:58:45.888Z,0.00
2023-01-25T03:59:45.867Z,0.00
2023-01-25T04:00:45.925Z,0.00
2023-01-25T04:01:45.866Z,0.00
2023-01-25T04:02:45.835Z,0.00
2023-01-25T04:03:45.822Z,0.00
2023-01-25T04:04:45.820Z,0.00
2023-01-25T04:05:45.808Z,0.00
2023-01-25T04:06:45.819Z,0.00
2023-01-25T04:07:45.784Z,0.00
2023-01-25T04:08:45.775Z,0.00
2023-01-25T04:09:45.780Z,0.00
2023-01-25T04:10:45.747Z,0.00
2023-01-25T04:11:45.761Z,0.00
2023-01-25T04:12:45.727Z,0.00
2023-01-25T04:13:45.719Z,0.00
2023-01-25T04:14:45.728Z,0.00
2023-01-25T04:15:45.697Z,0.00
2023-01-25T04:16:45.760Z,0.00
2023-01-25T04:17:45.699Z,0.00
2023-01-25T04:18:45.673Z,0.00
2023-01-25T04:19:45.649Z,0.00
2023-01-25T04:20:45.646Z,0.00
2023-01-25T04:21:45.634Z,0.00
2023-01-25T04:22:45.653Z,0.00
2023-01-25T04:23:45.659Z,0.00
2023-01-25T04:24:45.599Z,0.00
2023-01-25T04:25:45.608Z,0.00
2023-01-25T04:26:45.579Z,0.00
2023-01-25T04:27:45.585Z,0.00
2023-01-25T04:28:45.556Z,0.00
2023-01-25T04:29:45.542Z,0.00
2023-01-25T04:30:45.566Z,0.00
2023-01-25T04:31:45.630Z,0.00
2023-01-25T04:32:45.686Z,0.00
2023-01-25T04:33:45.500Z,0.00
2023-01-25T04:34:45.496Z,0.00
2023-01-25T04:35:45.479Z,0.00
2023-01-25T04:36:45.472Z,0.00
2023-01-25T04:37:45.482Z,0.00
2023-01-25T04:38:45.449Z,0.00
2023-01-25T04:39:45.437Z,0.00
2023-01-25T04:40:45.426Z,0.00
2023-01-25T04:41:45.440Z,0.00
2023-01-25T04:42:45.423Z,0.00
2023-01-25T04:43:45.397Z,0.00
2023-01-25T04:44:45.385Z,0.00
2023-01-25T04:45:45.452Z,0.00
2023-01-25T04:46:45.363Z,0.00
2023-01-25T04:47:45.395Z,0.00
2023-01-25T04:48:45.352Z,0.00
2023-01-25T04:49:45.329Z,0.00
2023-01-25T04:50:45.343Z,0.00
2023-01-25T04:51:45.324Z,0.00
2023-01-25T04:52:45.306Z,0.00
2023-01-25T04:53:45.287Z,0.00
2023-01-25T04:54:45.274Z,0.00
2023-01-25T04:55:45.294Z,0.00
2023-01-25T04:56:45.253Z,0.00
2023-01-25T04:57:45.263Z,0.00
2023-01-25T04:58:45.230Z,0.00
2023-01-25T04:59:45.219Z,0.00
2023-01-25T05:00:45.231Z,0.00
2023-01-25T05:01:45.199Z,0.00
2023-01-25T05:02:45.331Z,0.00
2023-01-25T05:03:45.189Z,0.00
2023-01-25T05:04:45.181Z,0.00
2023-01-25T05:05:45.180Z,0.00
2023-01-25T05:06:45.148Z,0.00
2023-01-25T05:07:45.135Z,0.00
2023-01-25T05:08:45.130Z,0.00
2023-01-25T05:09:45.112Z,0.00
2023-01-25T05:10:45.126Z,0.00
2023-01-25T05:11:45.092Z,0.00
2023-01-25T05:12:45.083Z,0.00
2023-01-25T05:13:45.182Z,0.00
2023-01-25T05:14:45.063Z,0.00
2023-01-25T05:15:45.086Z,0.00
2023-01-25T05:16:45.103Z,0.00
2023-01-25T05:17:45.030Z,0.00
2023-01-25T05:18:48.892Z,0.00
2023-01-25T05:19:45.007Z,0.00
2023-01-25T05:20:44.994Z,0.00
2023-01-25T05:21:45.244Z,0.00
2023-01-25T05:22:44.975Z,0.00
2023-01-25T05:23:44.990Z,0.00
2023-01-25T05:24:44.966Z,0.00
2023-01-25T05:25:44.940Z,0.00
2023-01-25T05:26:44.966Z,0.00
2023-01-25T05:27:44.921Z,0.00
2023-01-25T05:28:44.911Z,0.00
2023-01-25T05:29:44.919Z,0.00
2023-01-25T05:30:44.940Z,0.00
2023-01-25T05:31:44.910Z,0.00
2023-01-25T05:32:44.867Z,0.00
2023-01-25T05:33:44.853Z,0.00
2023-01-25T05:34:44.854Z,0.00
2023-01-25T05:35:44.836Z,0.00
2023-01-25T05:36:44.848Z,0.00
2023-01-25T05:37:44.822Z,0.00
2023-01-25T05:38:44.808Z,0.00
2023-01-25T05:39:44.792Z,0.00
2023-01-25T05:40:44.807Z,0.00
2023-01-25T05:41:44.787Z,0.00
2023-01-25T05:42:44.760Z,0.00
2023-01-25T05:43:44.767Z,0.00
2023-01-25T05:44:47.108Z,0.00
2023-01-25T05:45:44.826Z,0.00
2023-01-25T05:46:44.722Z,0.00
2023-01-25T05:47:44.705Z,0.00
2023-01-25T05:48:44.696Z,0.00
2023-01-25T05:49:44.748Z,0.00
2023-01-25T05:50:44.678Z,0.00
2023-01-25T05:51:44.661Z,0.00
2023-01-25T05:52:44.654Z,0.00
2023-01-25T05:53:44.650Z,0.00
2023-01-25T05:54:44.718Z,0.00
2023-01-25T05:55:44.618Z,0.00
2023-01-25T05:56:44.616Z,0.00
2023-01-25T05:57:44.624Z,0.00
2023-01-25T05:58:44.607Z,0.00
2023-01-25T05:59:44.654Z,0.00
2023-01-25T06:00:44.569Z,0.00
2023-01-25T06:01:44.603Z,0.00
2023-01-25T06:02:44.767Z,0.00
2023-01-25T06:03:44.585Z,0.00
2023-01-25T06:04:44.554Z,0.00
2023-01-25T06:05:44.549Z,0.00
2023-01-25T06:06:44.501Z,0.00
2023-01-25T06:07:44.510Z,0.00
2023-01-25T06:08:44.480Z,0.00
2023-01-25T06:09:44.469Z,0.00
2023-01-25T06:10:44.465Z,0.00
2023-01-25T06:11:44.445Z,0.00
2023-01-25T06:12:44.460Z,0.00
2023-01-25T06:13:44.427Z,0.00
2023-01-25T06:14:44.418Z,0.00
2023-01-25T06:15:44.618Z,0.00
2023-01-25T06:16:44.400Z,0.00
2023-01-25T06:17:44.428Z,0.00
2023-01-25T06:18:44.388Z,0.00
2023-01-25T06:19:44.360Z,0.00
2023-01-25T06:20:44.356Z,0.00
2023-01-25T06:21:44.374Z,0.00
2023-01-25T06:22:44.360Z,0.00
2023-01-25T06:23:45.366Z,0.00
2023-01-25T06:24:44.308Z,0.00
2023-01-25T06:25:44.308Z,0.00
2023-01-25T06:26:44.306Z,0.00
2023-01-25T06:27:44.281Z,0.00
2023-01-25T06:28:44.310Z,0.00
2023-01-25T06:29:44.260Z,0.00
2023-01-25T06:30:44.272Z,0.00
2023-01-25T06:31:44.315Z,0.00
2023-01-25T06:32:44.245Z,0.00
2023-01-25T06:33:44.239Z,0.00
2023-01-25T06:34:44.198Z,0.00
2023-01-25T06:35:44.187Z,0.00
2023-01-25T06:36:44.184Z,0.00
2023-01-25T06:37:44.194Z,0.00
2023-01-25T06:38:44.183Z,0.00
2023-01-25T06:39:44.147Z,0.00
2023-01-25T06:40:44.143Z,0.00
2023-01-25T06:41:44.129Z,0.00
2023-01-25T06:42:44.123Z,0.00
2023-01-25T06:43:44.123Z,0.00
2023-01-25T06:44:44.105Z,0.00
2023-01-25T06:45:44.113Z,0.00
2023-01-25T06:46:44.097Z,0.00
2023-01-25T06:47:44.065Z,0.00
2023-01-25T06:48:44.069Z,0.00
2023-01-25T06:49:44.066Z,0.00
2023-01-25T06:50:44.032Z,4.00
2023-01-25T06:51:44.044Z,4.00
2023-01-25T06:52:44.008Z,4.00
2023-01-25T06:53:44.004Z,0.00
2023-01-25T06:54:43.985Z,0.00
2023-01-25T06:55:43.976Z,4.00
2023-01-25T06:56:43.966Z,4.00
2023-01-25T06:57:43.982Z,4.00
2023-01-25T06:58:43.941Z,4.00
2023-01-25T06:59:43.933Z,4.00
2023-01-25T07:00:43.921Z,4.00
2023-01-25T07:01:43.954Z,4.00
2023-01-25T07:02:44.002Z,4.00
2023-01-25T07:03:43.892Z,4.00
2023-01-25T07:04:43.888Z,4.00
2023-01-25T07:05:43.897Z,4.00
2023-01-25T07:06:43.882Z,4.00
2023-01-25T07:07:43.854Z,4.00
2023-01-25T07:08:43.838Z,8.00
2023-01-25T07:09:43.854Z,8.00
2023-01-25T07:10:43.818Z,8.00
2023-01-25T07:11:43.806Z,4.00
2023-01-25T07:12:43.790Z,8.00
2023-01-25T07:13:43.795Z,8.00
2023-01-25T07:14:43.795Z,8.00
2023-01-25T07:15:43.773Z,12.00
2023-01-25T07:16:43.749Z,12.00
2023-01-25T07:17:43.740Z,8.00
2023-01-25T07:18:43.728Z,12.00
2023-01-25T07:19:43.734Z,12.00
2023-01-25T07:20:43.705Z,16.00
2023-01-25T07:21:43.742Z,12.00
2023-01-25T07:22:43.689Z,12.00
2023-01-25T07:23:43.680Z,16.00
2023-01-25T07:24:43.665Z,16.00
2023-01-25T07:25:43.673Z,12.00
2023-01-25T07:26:43.669Z,12.00
2023-01-25T07:27:43.639Z,12.00
2023-01-25T07:28:43.627Z,12.00
2023-01-25T07:29:43.615Z,12.00
2023-01-25T07:30:43.612Z,12.00
2023-01-25T07:31:43.657Z,16.00
2023-01-25T07:32:43.582Z,16.00
2023-01-25T07:33:43.610Z,16.00
2023-01-25T07:34:43.566Z,16.00
2023-01-25T07:35:43.592Z,16.00
2023-01-25T07:36:43.590Z,20.00
2023-01-25T07:37:43.548Z,20.00
2023-01-25T07:38:43.515Z,20.00
2023-01-25T07:39:43.514Z,20.00
2023-01-25T07:40:43.497Z,24.00
2023-01-25T07:41:43.506Z,24.00
2023-01-25T07:42:43.483Z,20.00
2023-01-25T07:43:43.472Z,20.00
2023-01-25T07:44:43.449Z,20.00
2023-01-25T07:45:43.489Z,20.00
2023-01-25T07:46:43.478Z,24.00
2023-01-25T07:47:43.417Z,24.00
2023-01-25T07:48:43.411Z,24.00
2023-01-25T07:49:43.415Z,28.00
2023-01-25T07:50:43.392Z,24.00
2023-01-25T07:51:43.405Z,28.00
2023-01-25T07:52:43.375Z,28.00
2023-01-25T07:53:43.433Z,28.00
2023-01-25T07:54:43.341Z,28.00
2023-01-25T07:55:43.365Z,28.00
2023-01-25T07:56:43.344Z,32.00
2023-01-25T07:57:43.318Z,36.00
2023-01-25T07:58:43.305Z,36.00
2023-01-25T07:59:43.293Z,36.00
2023-01-25T08:00:43.306Z,40.00
2023-01-25T08:01:43.279Z,40.00
2023-01-25T08:02:43.270Z,44.00
2023-01-25T08:03:43.274Z,40.00
2023-01-25T08:04:43.236Z,40.00
2023-01-25T08:05:43.234Z,40.00
2023-01-25T08:06:43.217Z,40.00
2023-01-25T08:07:43.217Z,40.00
2023-01-25T08:08:43.219Z,40.00
2023-01-25T08:09:43.204Z,40.00
2023-01-25T08:10:43.176Z,44.00
2023-01-25T08:11:43.165Z,44.00
2023-01-25T08:12:43.177Z,44.00
2023-01-25T08:13:43.147Z,48.00
2023-01-25T08:14:43.134Z,48.00
2023-01-25T08:15:43.120Z,44.00
2023-01-25T08:16:43.122Z,48.00
2023-01-25T08:17:43.120Z,48.00
2023-01-25T08:18:43.093Z,48.00
2023-01-25T08:19:43.088Z,48.00
2023-01-25T08:20:43.066Z,52.00
2023-01-25T08:21:43.059Z,56.00
2023-01-25T08:22:43.062Z,56.00
2023-01-25T08:23:43.074Z,56.00
2023-01-25T08:24:43.151Z,56.00
2023-01-25T08:25:43.045Z,60.00
2023-01-25T08:26:43.001Z,60.00
2023-01-25T08:27:43.033Z,60.00
2023-01-25T08:28:42.985Z,68.00
2023-01-25T08:29:42.980Z,68.00
2023-01-25T08:30:56.213Z,64.00
2023-01-25T08:31:44.094Z,60.00
2023-01-25T08:32:42.941Z,64.00
2023-01-25T08:33:42.932Z,64.00
2023-01-25T08:34:42.921Z,64.00
2023-01-25T08:35:42.908Z,64.00
2023-01-25T08:36:42.916Z,68.00
2023-01-25T08:37:42.892Z,68.00
2023-01-25T08:38:42.900Z,72.00
2023-01-25T08:39:42.870Z,76.00
2023-01-25T08:40:42.855Z,76.00
2023-01-25T08:41:42.887Z,76.00
2023-01-25T08:42:42.837Z,68.00
2023-01-25T08:43:42.829Z,68.00
2023-01-25T08:44:42.816Z,64.00
2023-01-25T08:45:42.802Z,68.00
2023-01-25T08:46:42.827Z,68.00
2023-01-25T08:47:42.777Z,68.00
2023-01-25T08:48:42.767Z,68.00
2023-01-25T08:49:42.763Z,68.00
2023-01-25T08:50:42.747Z,64.00
2023-01-25T08:51:42.740Z,64.00
2023-01-25T08:52:42.749Z,64.00
2023-01-25T08:53:42.740Z,68.00
2023-01-25T08:54:42.707Z,68.00
2023-01-25T08:55:42.696Z,76.00
2023-01-25T08:56:42.682Z,76.00
2023-01-25T08:57:42.718Z,76.00
2023-01-25T08:58:42.683Z,76.00
2023-01-25T08:59:42.654Z,72.00
2023-01-25T09:00:42.642Z,68.00
2023-01-25T09:01:42.629Z,72.00
2023-01-25T09:02:42.621Z,72.00
2023-01-25T09:03:42.704Z,68.00
2023-01-25T09:04:42.601Z,68.00
2023-01-25T09:05:42.587Z,72.00
2023-01-25T09:06:42.579Z,72.00
2023-01-25T09:07:42.595Z,72.00
2023-01-25T09:08:42.560Z,68.00
2023-01-25T09:09:42.585Z,68.00
2023-01-25T09:10:42.539Z,68.00
2023-01-25T09:11:42.526Z,68.00
2023-01-25T09:12:42.515Z,68.00
2023-01-25T09:13:42.549Z,64.00
2023-01-25T09:14:42.512Z,64.00
2023-01-25T09:15:42.486Z,64.00
2023-01-25T09:16:42.466Z,64.00
2023-01-25T09:17:42.466Z,64.00
2023-01-25T09:18:42.466Z,68.00
2023-01-25T09:19:42.454Z,68.00
2023-01-25T09:20:42.438Z,68.00
2023-01-25T09:21:42.424Z,72.00
2023-01-25T09:22:42.405Z,68.00
2023-01-25T09:23:50.814Z,72.00
2023-01-25T09:24:43.515Z,68.00
2023-01-25T09:25:42.377Z,72.00
2023-01-25T09:26:44.497Z,72.00
2023-01-25T09:27:42.351Z,72.00
2023-01-25T09:28:42.342Z,72.00
2023-01-25T09:29:49.600Z,72.00
2023-01-25T09:30:48.803Z,72.00
2023-01-25T09:31:43.489Z,76.00
2023-01-25T09:32:42.431Z,76.00
2023-01-25T09:33:42.305Z,80.00
2023-01-25T09:34:42.277Z,80.00
2023-01-25T09:35:42.285Z,80.00
2023-01-25T09:36:42.262Z,80.00
2023-01-25T09:37:42.269Z,80.00
2023-01-25T09:38:42.229Z,84.00
2023-01-25T09:39:42.236Z,84.00
2023-01-25T09:40:42.232Z,80.00
2023-01-25T09:41:42.209Z,72.00
2023-01-25T09:42:42.184Z,64.00
2023-01-25T09:43:42.204Z,72.00
2023-01-25T09:44:42.166Z,84.00
2023-01-25T09:45:42.203Z,96.00
2023-01-25T09:46:42.175Z,96.00
2023-01-25T09:47:42.138Z,88.00
2023-01-25T09:48:42.121Z,92.00
2023-01-25T09:49:42.119Z,88.00
2023-01-25T09:50:42.124Z,84.00
2023-01-25T09:51:42.097Z,84.00
2023-01-25T09:52:42.081Z,88.00
2023-01-25T09:53:42.087Z,92.00
2023-01-25T09:54:47.127Z,96.00
2023-01-25T09:55:43.070Z,96.00
2023-01-25T09:56:42.038Z,100.00
2023-01-25T09:57:42.033Z,100.00
2023-01-25T09:58:42.019Z,108.00
2023-01-25T09:59:42.018Z,108.00
2023-01-25T10:00:42.021Z,104.00
2023-01-25T10:01:42.041Z,92.00
2023-01-25T10:02:42.113Z,88.00
2023-01-25T10:03:41.971Z,84.00
2023-01-25T10:04:41.954Z,88.00
2023-01-25T10:05:41.948Z,92.00
2023-01-25T10:06:46.025Z,88.00
2023-01-25T10:07:42.928Z,88.00
2023-01-25T10:08:41.918Z,88.00
2023-01-25T10:09:41.902Z,88.00
2023-01-25T10:10:41.912Z,88.00
2023-01-25T10:11:43.079Z,92.00
2023-01-25T10:12:41.883Z,88.00
2023-01-25T10:13:41.859Z,88.00
2023-01-25T10:14:41.847Z,88.00
2023-01-25T10:15:41.864Z,84.00
2023-01-25T10:16:41.924Z,88.00
2023-01-25T10:17:41.871Z,84.00
2023-01-25T10:18:41.802Z,84.00
2023-01-25T10:19:41.799Z,88.00
2023-01-25T10:20:41.783Z,88.00
2023-01-25T10:21:41.790Z,88.00
2023-01-25T10:22:41.794Z,92.00
2023-01-25T10:23:41.770Z,92.00
2023-01-25T10:24:41.745Z,88.00
2023-01-25T10:25:41.731Z,88.00
2023-01-25T10:26:41.716Z,96.00
2023-01-25T10:27:41.737Z,100.00
2023-01-25T10:28:41.693Z,104.00
2023-01-25T10:29:41.694Z,104.00
2023-01-25T10:30:41.788Z,104.00
2023-01-25T10:31:41.764Z,104.00
2023-01-25T10:32:51.098Z,104.00
2023-01-25T10:33:42.668Z,104.00
2023-01-25T10:34:55.331Z,104.00
2023-01-25T10:35:45.728Z,104.00
2023-01-25T10:36:41.612Z,104.00
2023-01-25T10:37:41.607Z,108.00
2023-01-25T10:38:41.609Z,104.00
2023-01-25T10:39:41.579Z,100.00
2023-01-25T10:40:41.574Z,100.00
2023-01-25T10:41:41.563Z,104.00
2023-01-25T10:42:41.546Z,104.00
2023-01-25T10:43:41.554Z,116.00
2023-01-25T10:44:41.531Z,108.00
2023-01-25T10:45:41.534Z,100.00
2023-01-25T10:46:41.550Z,96.00
2023-01-25T10:47:41.530Z,100.00
2023-01-25T10:48:41.480Z,96.00
2023-01-25T10:49:41.498Z,96.00
2023-01-25T10:50:41.479Z,104.00
2023-01-25T10:51:41.455Z,108.00
2023-01-25T10:52:41.445Z,116.00
2023-01-25T10:53:41.458Z,108.00
2023-01-25T10:54:41.425Z,108.00
2023-01-25T10:55:41.407Z,100.00
2023-01-25T10:56:41.390Z,104.00
2023-01-25T10:57:41.408Z,96.00
2023-01-25T10:58:41.403Z,92.00
2023-01-25T10:59:41.407Z,96.00
2023-01-25T11:00:41.364Z,100.00
2023-01-25T11:01:41.392Z,100.00
2023-01-25T11:02:41.364Z,108.00
2023-01-25T11:03:41.342Z,108.00
2023-01-25T11:04:42.536Z,108.00
2023-01-25T11:05:41.344Z,108.00
2023-01-25T11:06:41.282Z,108.00
2023-01-25T11:07:41.277Z,108.00
2023-01-25T11:08:41.282Z,104.00
2023-01-25T11:09:41.259Z,104.00
2023-01-25T11:10:41.277Z,108.00
2023-01-25T11:11:41.646Z,100.00
2023-01-25T11:12:41.225Z,100.00
2023-01-25T11:13:41.213Z,100.00
2023-01-25T11:14:41.223Z,104.00
2023-01-25T11:15:41.246Z,104.00
2023-01-25T11:16:41.186Z,104.00
2023-01-25T11:17:41.172Z,100.00
2023-01-25T11:18:42.139Z,100.00
2023-01-25T11:19:41.160Z,100.00
2023-01-25T11:20:41.139Z,108.00
2023-01-25T11:21:41.388Z,116.00
2023-01-25T11:22:41.140Z,116.00
2023-01-25T11:23:41.101Z,108.00
2023-01-25T11:24:41.097Z,108.00
2023-01-25T11:25:41.109Z,108.00
2023-01-25T11:26:41.082Z,116.00
2023-01-25T11:27:41.103Z,120.00
2023-01-25T11:28:41.058Z,116.00
2023-01-25T11:29:41.037Z,124.00
2023-01-25T11:30:41.076Z,132.00
2023-01-25T11:31:41.056Z,132.00
2023-01-25T11:32:41.024Z,136.00
2023-01-25T11:33:41.025Z,140.00
2023-01-25T11:34:40.991Z,140.00
2023-01-25T11:35:41.646Z,136.00
2023-01-25T11:36:40.971Z,132.00
2023-01-25T11:37:40.977Z,124.00
2023-01-25T11:38:40.972Z,124.00
2023-01-25T11:39:40.945Z,120.00
2023-01-25T11:40:40.925Z,128.00
2023-01-25T11:41:40.916Z,124.00
2023-01-25T11:42:40.903Z,116.00
2023-01-25T11:43:40.909Z,104.00
2023-01-25T11:44:40.880Z,112.00
2023-01-25T11:45:40.869Z,108.00
2023-01-25T11:46:40.932Z,100.00
2023-01-25T11:47:40.845Z,96.00
2023-01-25T11:48:40.860Z,96.00
2023-01-25T11:49:40.847Z,104.00
2023-01-25T11:50:40.817Z,104.00
2023-01-25T11:51:40.803Z,100.00
2023-01-25T11:52:40.802Z,100.00
2023-01-25T11:53:40.818Z,100.00
2023-01-25T11:54:40.774Z,100.00
2023-01-25T11:55:40.788Z,100.00
2023-01-25T11:56:40.749Z,92.00
2023-01-25T11:57:40.743Z,92.00
2023-01-25T11:58:40.733Z,96.00
2023-01-25T11:59:40.742Z,100.00
2023-01-25T12:00:40.720Z,100.00
2023-01-25T12:01:40.690Z,100.00
2023-01-25T12:02:40.723Z,100.00
2023-01-25T12:03:40.727Z,96.00
2023-01-25T12:04:40.675Z,100.00
2023-01-25T12:05:40.674Z,104.00
2023-01-25T12:06:40.645Z,104.00
2023-01-25T12:07:40.626Z,104.00
2023-01-25T12:08:40.628Z,104.00
2023-01-25T12:09:40.669Z,104.00
2023-01-25T12:10:40.603Z,100.00
2023-01-25T12:11:40.590Z,100.00
2023-01-25T12:12:40.622Z,100.00
2023-01-25T12:13:40.569Z,96.00
2023-01-25T12:14:40.560Z,96.00
2023-01-25T12:15:40.540Z,100.00
2023-01-25T12:16:40.566Z,100.00
2023-01-25T12:17:40.549Z,96.00
2023-01-25T12:18:40.527Z,92.00
2023-01-25T12:19:40.498Z,88.00
2023-01-25T12:20:40.496Z,92.00
2023-01-25T12:21:40.503Z,92.00
2023-01-25T12:22:40.476Z,96.00
2023-01-25T12:23:41.134Z,88.00
2023-01-25T12:24:40.451Z,88.00
2023-01-25T12:25:40.456Z,96.00
2023-01-25T12:26:40.471Z,104.00
2023-01-25T12:27:40.438Z,96.00
2023-01-25T12:28:40.408Z,92.00
2023-01-25T12:29:40.397Z,92.00
2023-01-25T12:30:40.446Z,84.00
2023-01-25T12:31:40.509Z,88.00
2023-01-25T12:32:40.393Z,88.00
2023-01-25T12:33:40.359Z,88.00
2023-01-25T12:34:40.346Z,88.00
2023-01-25T12:35:40.329Z,88.00
2023-01-25T12:36:40.344Z,80.00
2023-01-25T12:37:40.308Z,76.00
2023-01-25T12:38:40.296Z,84.00
2023-01-25T12:39:40.285Z,84.00
2023-01-25T12:40:40.276Z,88.00
2023-01-25T12:41:40.302Z,92.00
2023-01-25T12:42:40.281Z,88.00
2023-01-25T12:43:40.257Z,88.00
2023-01-25T12:44:40.235Z,88.00
2023-01-25T12:45:40.220Z,84.00
2023-01-25T12:46:40.440Z,80.00
2023-01-25T12:47:40.220Z,76.00
2023-01-25T12:48:40.212Z,76.00
2023-01-25T12:49:40.185Z,72.00
2023-01-25T12:50:40.172Z,72.00
2023-01-25T12:51:40.174Z,76.00
2023-01-25T12:52:40.173Z,80.00
2023-01-25T12:53:40.136Z,80.00
2023-01-25T12:54:40.129Z,76.00
2023-01-25T12:55:40.118Z,72.00
2023-01-25T12:56:40.108Z,72.00
2023-01-25T12:57:40.142Z,72.00
2023-01-25T12:58:40.084Z,72.00
2023-01-25T12:59:40.081Z,72.00
2023-01-25T13:00:40.190Z,64.00
2023-01-25T13:01:40.068Z,64.00
2023-01-25T13:02:40.064Z,60.00
2023-01-25T13:03:40.039Z,64.00